sensor_id;sensor_type;location;lat;lon;timestamp;temperature;humidity
5196;DHT22;2617;51.006;12.436;2022-07-17T00:03:23;10.70;99.90
5196;DHT22;2617;51.006;12.436;2022-07-17T00:08:25;10.60;99.90
5196;DHT22;2617;51.006;12.436;2022-07-17T00:13:27;10.50;99.90
5196;DHT22;2617;51.006;12.436;2022-07-17T00:18:30;10.40;99.90
5196;DHT22;2617;51.006;12.436;2022-07-17T00:23:32;10.30;99.90
5196;DHT22;2617;51.006;12.436;2022-07-17T00:28:37;10.10;99.90
5196;DHT22;2617;51.006;12.436;2022-07-17T00:33:40;10.10;99.90
5196;DHT22;2617;51.006;12.436;2022-07-17T00:38:43;10.00;99.90
5196;DHT22;2617;51.006;12.436;2022-07-17T00:43:45;9.90;99.90
5196;DHT22;2617;51.006;12.436;2022-07-17T00:48:48;9.70;99.90
5196;DHT22;2617;51.006;12.436;2022-07-17T00:53:51;9.60;99.90
5196;DHT22;2617;51.006;12.436;2022-07-17T00:58:53;9.60;99.90
5196;DHT22;2617;51.006;12.436;2022-07-17T01:03:55;9.60;99.90
5196;DHT22;2617;51.006;12.436;2022-07-17T01:08:58;9.40;99.90
5196;DHT22;2617;51.006;12.436;2022-07-17T01:14:00;9.40;99.90
5196;DHT22;2617;51.006;12.436;2022-07-17T01:19:03;9.30;99.90
5196;DHT22;2617;51.006;12.436;2022-07-17T01:24:05;9.20;99.90
5196;DHT22;2617;51.006;12.436;2022-07-17T01:29:09;9.20;99.90
5196;DHT22;2617;51.006;12.436;2022-07-17T01:34:11;9.10;99.90
5196;DHT22;2617;51.006;12.436;2022-07-17T01:39:14;9.10;99.90
5196;DHT22;2617;51.006;12.436;2022-07-17T01:44:17;9.00;99.90
5196;DHT22;2617;51.006;12.436;2022-07-17T01:49:20;8.90;99.90
5196;DHT22;2617;51.006;12.436;2022-07-17T01:54:22;8.90;99.90
5196;DHT22;2617;51.006;12.436;2022-07-17T01:59:25;8.80;99.90
5196;DHT22;2617;51.006;12.436;2022-07-17T02:04:28;8.80;99.90
5196;DHT22;2617;51.006;12.436;2022-07-17T02:09:30;8.70;99.90
5196;DHT22;2617;51.006;12.436;2022-07-17T02:14:33;8.60;99.90
5196;DHT22;2617;51.006;12.436;2022-07-17T02:19:35;8.50;99.90
5196;DHT22;2617;51.006;12.436;2022-07-17T02:24:38;8.40;99.90
5196;DHT22;2617;51.006;12.436;2022-07-17T02:29:40;8.30;99.90
5196;DHT22;2617;51.006;12.436;2022-07-17T02:34:45;8.10;99.90
5196;DHT22;2617;51.006;12.436;2022-07-17T02:39:47;8.10;99.90
5196;DHT22;2617;51.006;12.436;2022-07-17T02:44:54;8.00;99.90
5196;DHT22;2617;51.006;12.436;2022-07-17T02:49:56;7.90;99.90
5196;DHT22;2617;51.006;12.436;2022-07-17T02:54:59;7.80;99.90
5196;DHT22;2617;51.006;12.436;2022-07-17T03:00:06;7.70;99.90
5196;DHT22;2617;51.006;12.436;2022-07-17T03:05:09;7.70;99.90
5196;DHT22;2617;51.006;12.436;2022-07-17T03:10:13;7.60;99.90
5196;DHT22;2617;51.006;12.436;2022-07-17T03:15:15;7.60;99.90
5196;DHT22;2617;51.006;12.436;2022-07-17T03:20:18;7.50;99.90
5196;DHT22;2617;51.006;12.436;2022-07-17T03:25:21;7.50;99.90
5196;DHT22;2617;51.006;12.436;2022-07-17T03:30:23;7.50;99.90
5196;DHT22;2617;51.006;12.436;2022-07-17T03:35:25;7.70;99.90
5196;DHT22;2617;51.006;12.436;2022-07-17T03:40:28;7.80;99.90
5196;DHT22;2617;51.006;12.436;2022-07-17T03:45:30;8.00;99.90
5196;DHT22;2617;51.006;12.436;2022-07-17T03:50:33;9.20;99.90
5196;DHT22;2617;51.006;12.436;2022-07-17T03:55:36;13.60;99.90
5196;DHT22;2617;51.006;12.436;2022-07-17T04:00:38;13.50;99.90
5196;DHT22;2617;51.006;12.436;2022-07-17T04:05:41;15.30;97.50
5196;DHT22;2617;51.006;12.436;2022-07-17T04:10:44;18.30;91.10
5196;DHT22;2617;51.006;12.436;2022-07-17T04:15:47;18.20;91.00
5196;DHT22;2617;51.006;12.436;2022-07-17T04:20:52;19.50;86.00
5196;DHT22;2617;51.006;12.436;2022-07-17T04:25:55;21.10;80.30
5196;DHT22;2617;51.006;12.436;2022-07-17T04:30:58;21.90;77.10
5196;DHT22;2617;51.006;12.436;2022-07-17T04:36:01;21.90;77.10
5196;DHT22;2617;51.006;12.436;2022-07-17T04:41:03;22.20;75.50
5196;DHT22;2617;51.006;12.436;2022-07-17T04:46:06;22.70;74.60
5196;DHT22;2617;51.006;12.436;2022-07-17T04:51:08;23.70;72.00
5196;DHT22;2617;51.006;12.436;2022-07-17T04:56:11;24.20;70.10
5196;DHT22;2617;51.006;12.436;2022-07-17T05:01:15;24.90;68.40
5196;DHT22;2617;51.006;12.436;2022-07-17T05:06:17;25.50;66.50
5196;DHT22;2617;51.006;12.436;2022-07-17T05:11:20;25.80;64.90
5196;DHT22;2617;51.006;12.436;2022-07-17T05:16:22;25.20;64.70
5196;DHT22;2617;51.006;12.436;2022-07-17T05:21:25;24.50;66.40
5196;DHT22;2617;51.006;12.436;2022-07-17T05:26:27;24.00;67.50
5196;DHT22;2617;51.006;12.436;2022-07-17T05:31:30;23.40;69.60
5196;DHT22;2617;51.006;12.436;2022-07-17T05:36:32;23.10;70.90
5196;DHT22;2617;51.006;12.436;2022-07-17T05:41:34;22.40;73.50
5196;DHT22;2617;51.006;12.436;2022-07-17T05:46:38;20.10;79.30
5196;DHT22;2617;51.006;12.436;2022-07-17T05:51:40;20.10;79.30
5196;DHT22;2617;51.006;12.436;2022-07-17T05:56:42;19.20;82.60
5196;DHT22;2617;51.006;12.436;2022-07-17T06:01:46;18.40;86.30
5196;DHT22;2617;51.006;12.436;2022-07-17T06:06:48;18.40;86.20
5196;DHT22;2617;51.006;12.436;2022-07-17T06:11:51;18.30;88.00
5196;DHT22;2617;51.006;12.436;2022-07-17T06:16:54;18.10;84.80
5196;DHT22;2617;51.006;12.436;2022-07-17T06:21:56;18.00;84.60
5196;DHT22;2617;51.006;12.436;2022-07-17T06:26:58;17.80;87.00
5196;DHT22;2617;51.006;12.436;2022-07-17T06:32:02;17.80;88.60
5196;DHT22;2617;51.006;12.436;2022-07-17T06:37:05;18.10;89.40
5196;DHT22;2617;51.006;12.436;2022-07-17T06:42:07;18.30;88.50
5196;DHT22;2617;51.006;12.436;2022-07-17T06:47:10;18.30;90.00
5196;DHT22;2617;51.006;12.436;2022-07-17T06:52:13;18.30;89.80
5196;DHT22;2617;51.006;12.436;2022-07-17T06:57:16;18.70;88.80
5196;DHT22;2617;51.006;12.436;2022-07-17T07:02:19;19.30;83.70
5196;DHT22;2617;51.006;12.436;2022-07-17T07:07:21;19.30;83.60
5196;DHT22;2617;51.006;12.436;2022-07-17T07:12:24;19.40;83.10
5196;DHT22;2617;51.006;12.436;2022-07-17T07:17:26;19.40;82.30
5196;DHT22;2617;51.006;12.436;2022-07-17T07:22:30;19.20;85.40
5196;DHT22;2617;51.006;12.436;2022-07-17T07:27:32;19.10;85.20
5196;DHT22;2617;51.006;12.436;2022-07-17T07:32:35;19.50;84.20
5196;DHT22;2617;51.006;12.436;2022-07-17T07:37:38;19.60;84.30
5196;DHT22;2617;51.006;12.436;2022-07-17T07:42:40;19.70;84.30
5196;DHT22;2617;51.006;12.436;2022-07-17T07:47:44;20.10;80.80
5196;DHT22;2617;51.006;12.436;2022-07-17T07:52:46;20.20;81.30
5196;DHT22;2617;51.006;12.436;2022-07-17T07:57:50;20.40;80.70
5196;DHT22;2617;51.006;12.436;2022-07-17T08:02:55;20.60;80.20
5196;DHT22;2617;51.006;12.436;2022-07-17T08:07:59;20.60;80.20
5196;DHT22;2617;51.006;12.436;2022-07-17T08:13:02;20.70;79.50
5196;DHT22;2617;51.006;12.436;2022-07-17T08:18:06;20.90;79.60
5196;DHT22;2617;51.006;12.436;2022-07-17T08:23:08;20.90;79.60
5196;DHT22;2617;51.006;12.436;2022-07-17T08:28:11;21.10;79.40
5196;DHT22;2617;51.006;12.436;2022-07-17T08:33:13;21.20;78.50
5196;DHT22;2617;51.006;12.436;2022-07-17T08:38:17;21.30;78.40
5196;DHT22;2617;51.006;12.436;2022-07-17T08:43:20;20.90;77.60
5196;DHT22;2617;51.006;12.436;2022-07-17T08:48:23;20.90;77.50
5196;DHT22;2617;51.006;12.436;2022-07-17T08:53:26;21.10;76.30
5196;DHT22;2617;51.006;12.436;2022-07-17T08:58:29;21.10;76.30
5196;DHT22;2617;51.006;12.436;2022-07-17T09:03:31;20.60;77.20
5196;DHT22;2617;51.006;12.436;2022-07-17T09:08:34;20.80;77.00
5196;DHT22;2617;51.006;12.436;2022-07-17T09:13:41;21.50;71.50
5196;DHT22;2617;51.006;12.436;2022-07-17T09:18:45;21.40;72.90
5196;DHT22;2617;51.006;12.436;2022-07-17T09:23:59;21.30;72.80
5196;DHT22;2617;51.006;12.436;2022-07-17T09:29:01;21.10;73.70
5196;DHT22;2617;51.006;12.436;2022-07-17T09:34:04;21.90;71.70
5196;DHT22;2617;51.006;12.436;2022-07-17T09:39:07;21.90;71.70
5196;DHT22;2617;51.006;12.436;2022-07-17T09:44:09;22.20;70.40
5196;DHT22;2617;51.006;12.436;2022-07-17T09:49:12;22.50;70.30
5196;DHT22;2617;51.006;12.436;2022-07-17T09:54:14;22.50;69.60
5196;DHT22;2617;51.006;12.436;2022-07-17T09:59:17;22.70;68.10
5196;DHT22;2617;51.006;12.436;2022-07-17T10:04:20;23.20;64.50
5196;DHT22;2617;51.006;12.436;2022-07-17T10:09:24;23.50;64.70
5196;DHT22;2617;51.006;12.436;2022-07-17T10:14:26;23.50;64.30
5196;DHT22;2617;51.006;12.436;2022-07-17T10:19:28;23.40;67.90
5196;DHT22;2617;51.006;12.436;2022-07-17T10:24:31;23.10;62.60
5196;DHT22;2617;51.006;12.436;2022-07-17T10:29:35;22.60;67.10
5196;DHT22;2617;51.006;12.436;2022-07-17T10:34:38;23.50;64.60
5196;DHT22;2617;51.006;12.436;2022-07-17T10:39:56;24.70;62.90
5196;DHT22;2617;51.006;12.436;2022-07-17T10:45:05;24.70;60.20
5196;DHT22;2617;51.006;12.436;2022-07-17T10:50:06;24.60;60.80
5196;DHT22;2617;51.006;12.436;2022-07-17T10:55:20;25.00;59.30
5196;DHT22;2617;51.006;12.436;2022-07-17T11:00:21;24.40;59.90
5196;DHT22;2617;51.006;12.436;2022-07-17T11:05:24;24.10;63.20
5196;DHT22;2617;51.006;12.436;2022-07-17T11:10:27;24.10;63.20
5196;DHT22;2617;51.006;12.436;2022-07-17T11:15:29;24.30;61.20
5196;DHT22;2617;51.006;12.436;2022-07-17T11:20:32;24.50;59.30
5196;DHT22;2617;51.006;12.436;2022-07-17T11:25:34;24.20;59.40
5196;DHT22;2617;51.006;12.436;2022-07-17T11:30:37;23.40;58.60
5196;DHT22;2617;51.006;12.436;2022-07-17T11:35:45;23.50;62.40
5196;DHT22;2617;51.006;12.436;2022-07-17T11:40:48;23.70;59.80
5196;DHT22;2617;51.006;12.436;2022-07-17T11:45:51;24.40;59.10
5196;DHT22;2617;51.006;12.436;2022-07-17T11:50:54;24.40;59.10
5196;DHT22;2617;51.006;12.436;2022-07-17T11:55:56;24.60;57.70
5196;DHT22;2617;51.006;12.436;2022-07-17T12:01:02;24.60;57.60
5196;DHT22;2617;51.006;12.436;2022-07-17T12:06:04;24.90;55.70
5196;DHT22;2617;51.006;12.436;2022-07-17T12:11:08;25.70;55.00
5196;DHT22;2617;51.006;12.436;2022-07-17T12:16:18;24.20;57.40
5196;DHT22;2617;51.006;12.436;2022-07-17T12:21:22;23.50;57.80
5196;DHT22;2617;51.006;12.436;2022-07-17T12:26:24;23.50;57.10
5196;DHT22;2617;51.006;12.436;2022-07-17T12:31:27;23.80;57.40
5196;DHT22;2617;51.006;12.436;2022-07-17T12:36:29;24.10;55.80
5196;DHT22;2617;51.006;12.436;2022-07-17T12:41:31;24.40;56.10
5196;DHT22;2617;51.006;12.436;2022-07-17T12:46:34;25.20;54.60
5196;DHT22;2617;51.006;12.436;2022-07-17T12:51:36;25.70;54.20
5196;DHT22;2617;51.006;12.436;2022-07-17T12:56:40;26.00;51.10
5196;DHT22;2617;51.006;12.436;2022-07-17T13:01:42;25.90;51.00
5196;DHT22;2617;51.006;12.436;2022-07-17T13:06:45;25.80;52.70
5196;DHT22;2617;51.006;12.436;2022-07-17T13:11:47;25.90;52.60
5196;DHT22;2617;51.006;12.436;2022-07-17T13:16:51;25.50;51.60
5196;DHT22;2617;51.006;12.436;2022-07-17T13:21:54;25.70;52.40
5196;DHT22;2617;51.006;12.436;2022-07-17T13:26:57;25.70;52.30
5196;DHT22;2617;51.006;12.436;2022-07-17T13:32:00;25.10;52.70
5196;DHT22;2617;51.006;12.436;2022-07-17T13:37:02;25.00;52.60
5196;DHT22;2617;51.006;12.436;2022-07-17T13:42:05;25.30;53.00
5196;DHT22;2617;51.006;12.436;2022-07-17T13:47:08;24.90;52.70
5196;DHT22;2617;51.006;12.436;2022-07-17T13:52:10;25.30;51.80
5196;DHT22;2617;51.006;12.436;2022-07-17T13:57:13;26.00;51.90
5196;DHT22;2617;51.006;12.436;2022-07-17T14:02:16;26.50;46.30
5196;DHT22;2617;51.006;12.436;2022-07-17T14:07:19;26.20;47.60
5196;DHT22;2617;51.006;12.436;2022-07-17T14:12:22;26.20;47.60
5196;DHT22;2617;51.006;12.436;2022-07-17T14:17:24;26.40;46.50
5196;DHT22;2617;51.006;12.436;2022-07-17T14:22:27;26.30;45.90
5196;DHT22;2617;51.006;12.436;2022-07-17T14:27:30;25.30;47.70
5196;DHT22;2617;51.006;12.436;2022-07-17T14:32:32;25.20;47.70
5196;DHT22;2617;51.006;12.436;2022-07-17T14:37:35;25.10;49.00
5196;DHT22;2617;51.006;12.436;2022-07-17T14:42:38;25.20;48.70
5196;DHT22;2617;51.006;12.436;2022-07-17T14:47:41;25.20;48.70
5196;DHT22;2617;51.006;12.436;2022-07-17T14:52:44;25.70;46.50
5196;DHT22;2617;51.006;12.436;2022-07-17T14:57:46;25.80;47.40
5196;DHT22;2617;51.006;12.436;2022-07-17T15:02:50;25.90;45.30
5196;DHT22;2617;51.006;12.436;2022-07-17T15:07:52;25.60;47.50
5196;DHT22;2617;51.006;12.436;2022-07-17T15:12:55;25.70;46.10
5196;DHT22;2617;51.006;12.436;2022-07-17T15:17:57;26.20;45.90
5196;DHT22;2617;51.006;12.436;2022-07-17T15:23:00;26.30;44.30
5196;DHT22;2617;51.006;12.436;2022-07-17T15:28:03;26.80;44.40
5196;DHT22;2617;51.006;12.436;2022-07-17T15:33:06;26.90;44.10
5196;DHT22;2617;51.006;12.436;2022-07-17T15:38:08;26.40;43.30
5196;DHT22;2617;51.006;12.436;2022-07-17T15:43:11;26.30;43.20
5196;DHT22;2617;51.006;12.436;2022-07-17T15:48:13;26.10;43.30
5196;DHT22;2617;51.006;12.436;2022-07-17T15:53:15;25.90;44.20
5196;DHT22;2617;51.006;12.436;2022-07-17T15:58:18;26.30;43.80
5196;DHT22;2617;51.006;12.436;2022-07-17T16:03:20;25.60;44.50
5196;DHT22;2617;51.006;12.436;2022-07-17T16:08:23;25.90;43.70
5196;DHT22;2617;51.006;12.436;2022-07-17T16:13:25;26.00;42.90
5196;DHT22;2617;51.006;12.436;2022-07-17T16:18:28;25.40;43.90
5196;DHT22;2617;51.006;12.436;2022-07-17T16:23:30;25.10;44.50
5196;DHT22;2617;51.006;12.436;2022-07-17T16:28:33;25.30;45.50
5196;DHT22;2617;51.006;12.436;2022-07-17T16:33:35;25.50;45.20
5196;DHT22;2617;51.006;12.436;2022-07-17T16:38:38;25.10;45.50
5196;DHT22;2617;51.006;12.436;2022-07-17T16:43:41;25.10;45.50
5196;DHT22;2617;51.006;12.436;2022-07-17T16:48:43;24.80;46.10
5196;DHT22;2617;51.006;12.436;2022-07-17T16:53:46;24.60;46.30
5196;DHT22;2617;51.006;12.436;2022-07-17T16:58:49;24.50;46.10
5196;DHT22;2617;51.006;12.436;2022-07-17T17:03:55;24.50;47.30
5196;DHT22;2617;51.006;12.436;2022-07-17T17:08:57;24.20;47.60
5196;DHT22;2617;51.006;12.436;2022-07-17T17:14:01;24.00;47.90
5196;DHT22;2617;51.006;12.436;2022-07-17T17:19:03;23.80;49.00
5196;DHT22;2617;51.006;12.436;2022-07-17T17:24:06;23.80;49.10
5196;DHT22;2617;51.006;12.436;2022-07-17T17:29:08;24.00;48.70
5196;DHT22;2617;51.006;12.436;2022-07-17T17:34:11;24.00;48.90
5196;DHT22;2617;51.006;12.436;2022-07-17T17:39:13;23.80;49.70
5196;DHT22;2617;51.006;12.436;2022-07-17T17:44:16;23.80;49.20
5196;DHT22;2617;51.006;12.436;2022-07-17T17:49:18;23.90;50.70
5196;DHT22;2617;51.006;12.436;2022-07-17T17:54:20;23.90;49.80
5196;DHT22;2617;51.006;12.436;2022-07-17T17:59:24;24.00;50.50
5196;DHT22;2617;51.006;12.436;2022-07-17T18:04:27;24.00;51.20
5196;DHT22;2617;51.006;12.436;2022-07-17T18:09:30;24.00;51.20
5196;DHT22;2617;51.006;12.436;2022-07-17T18:14:33;23.70;52.40
5196;DHT22;2617;51.006;12.436;2022-07-17T18:19:36;23.70;52.40
5196;DHT22;2617;51.006;12.436;2022-07-17T18:24:38;23.50;52.90
5196;DHT22;2617;51.006;12.436;2022-07-17T18:29:41;22.80;54.70
5196;DHT22;2617;51.006;12.436;2022-07-17T18:34:44;22.70;54.60
5196;DHT22;2617;51.006;12.436;2022-07-17T18:39:46;22.50;55.70
5196;DHT22;2617;51.006;12.436;2022-07-17T18:44:48;22.20;55.90
5196;DHT22;2617;51.006;12.436;2022-07-17T18:49:51;22.00;56.80
5196;DHT22;2617;51.006;12.436;2022-07-17T18:54:55;21.80;57.90
5196;DHT22;2617;51.006;12.436;2022-07-17T18:59:58;21.40;60.20
5196;DHT22;2617;51.006;12.436;2022-07-17T19:05:01;21.30;59.90
5196;DHT22;2617;51.006;12.436;2022-07-17T19:10:04;21.00;62.50
5196;DHT22;2617;51.006;12.436;2022-07-17T19:15:07;20.90;62.40
5196;DHT22;2617;51.006;12.436;2022-07-17T19:20:11;20.60;64.00
5196;DHT22;2617;51.006;12.436;2022-07-17T19:25:13;20.30;65.10
5196;DHT22;2617;51.006;12.436;2022-07-17T19:30:15;20.10;65.80
5196;DHT22;2617;51.006;12.436;2022-07-17T19:35:18;20.00;66.80
5196;DHT22;2617;51.006;12.436;2022-07-17T19:40:20;19.80;68.00
5196;DHT22;2617;51.006;12.436;2022-07-17T19:45:23;19.60;69.40
5196;DHT22;2617;51.006;12.436;2022-07-17T19:50:26;19.40;69.90
5196;DHT22;2617;51.006;12.436;2022-07-17T19:55:29;19.00;71.90
5196;DHT22;2617;51.006;12.436;2022-07-17T20:00:32;18.80;74.30
5196;DHT22;2617;51.006;12.436;2022-07-17T20:05:34;18.70;73.50
5196;DHT22;2617;51.006;12.436;2022-07-17T20:10:37;18.50;74.50
5196;DHT22;2617;51.006;12.436;2022-07-17T20:15:39;18.30;75.40
5196;DHT22;2617;51.006;12.436;2022-07-17T20:20:43;17.90;77.40
5196;DHT22;2617;51.006;12.436;2022-07-17T20:25:45;17.90;77.40
5196;DHT22;2617;51.006;12.436;2022-07-17T20:30:48;17.70;79.00
5196;DHT22;2617;51.006;12.436;2022-07-17T20:35:50;17.60;80.30
5196;DHT22;2617;51.006;12.436;2022-07-17T20:40:52;17.40;82.00
5196;DHT22;2617;51.006;12.436;2022-07-17T20:45:56;17.30;84.40
5196;DHT22;2617;51.006;12.436;2022-07-17T20:50:58;17.10;86.30
5196;DHT22;2617;51.006;12.436;2022-07-17T20:56:01;16.90;87.80
5196;DHT22;2617;51.006;12.436;2022-07-17T21:01:04;16.60;89.20
5196;DHT22;2617;51.006;12.436;2022-07-17T21:06:07;16.60;89.20
5196;DHT22;2617;51.006;12.436;2022-07-17T21:11:09;16.50;90.10
5196;DHT22;2617;51.006;12.436;2022-07-17T21:16:12;16.40;90.80
5196;DHT22;2617;51.006;12.436;2022-07-17T21:21:14;16.30;91.50
5196;DHT22;2617;51.006;12.436;2022-07-17T21:26:17;16.10;92.90
5196;DHT22;2617;51.006;12.436;2022-07-17T21:31:20;16.00;93.10
5196;DHT22;2617;51.006;12.436;2022-07-17T21:36:22;15.90;93.80
5196;DHT22;2617;51.006;12.436;2022-07-17T21:41:26;15.70;95.00
5196;DHT22;2617;51.006;12.436;2022-07-17T21:46:29;15.60;95.40
5196;DHT22;2617;51.006;12.436;2022-07-17T21:51:32;15.60;95.90
5196;DHT22;2617;51.006;12.436;2022-07-17T21:56:34;15.50;95.90
5196;DHT22;2617;51.006;12.436;2022-07-17T22:01:37;15.40;96.30
5196;DHT22;2617;51.006;12.436;2022-07-17T22:06:40;15.20;97.10
5196;DHT22;2617;51.006;12.436;2022-07-17T22:11:43;15.20;97.10
5196;DHT22;2617;51.006;12.436;2022-07-17T22:16:46;15.10;97.30
5196;DHT22;2617;51.006;12.436;2022-07-17T22:21:49;15.10;97.40
5196;DHT22;2617;51.006;12.436;2022-07-17T22:26:51;15.00;97.50
5196;DHT22;2617;51.006;12.436;2022-07-17T22:31:54;15.00;97.90
5196;DHT22;2617;51.006;12.436;2022-07-17T22:36:57;14.80;98.30
5196;DHT22;2617;51.006;12.436;2022-07-17T22:42:00;14.70;98.40
5196;DHT22;2617;51.006;12.436;2022-07-17T22:47:02;14.70;98.50
5196;DHT22;2617;51.006;12.436;2022-07-17T22:52:05;14.60;98.70
5196;DHT22;2617;51.006;12.436;2022-07-17T22:57:08;14.50;99.60
5196;DHT22;2617;51.006;12.436;2022-07-17T23:02:11;14.50;99.60
5196;DHT22;2617;51.006;12.436;2022-07-17T23:07:14;14.40;99.90
5196;DHT22;2617;51.006;12.436;2022-07-17T23:12:17;14.30;99.90
5196;DHT22;2617;51.006;12.436;2022-07-17T23:17:19;14.20;99.90
5196;DHT22;2617;51.006;12.436;2022-07-17T23:22:22;14.00;99.90
5196;DHT22;2617;51.006;12.436;2022-07-17T23:27:25;14.00;99.90
5196;DHT22;2617;51.006;12.436;2022-07-17T23:32:28;13.90;99.90
5196;DHT22;2617;51.006;12.436;2022-07-17T23:37:31;13.70;99.90
5196;DHT22;2617;51.006;12.436;2022-07-17T23:42:33;13.60;99.90
5196;DHT22;2617;51.006;12.436;2022-07-17T23:47:35;13.50;99.90
5196;DHT22;2617;51.006;12.436;2022-07-17T23:52:39;13.20;99.90
5196;DHT22;2617;51.006;12.436;2022-07-17T23:57:41;13.20;99.90
